Terminal Aerodrome Forecast
Issued by NWS Tulsa, OK

Home | Current Version | Previous Version | Text Only | Print | Product List | Glossary On
Versions: 1 2 3 4 5 6 7 8 9 10 11 12 13 14 15 16 17 18 19
174
FTUS44 KTSA 200831 AAA
TAFTUL
TAF AMD
KTUL 200831Z 2009/2106 14015KT P6SM VCSH SCT040 BKN100 OVC200
      TEMPO 2009/2012 22015KT 5SM SHRA BR BKN025
     FM201200 18008KT P6SM OVC040
      TEMPO 2012/2016 5SM -RA BR OVC025
     FM202000 18010KT P6SM SCT150 BKN250
     FM210000 20005KT P6SM BKN250=

USA.gov is the U.S. government's official web portal to all federal, state and local government web resources and services.